sensor_id;sensor_type;location;lat;lon;timestamp;pressure;altitude;pressure_sealevel;temperature
66113;BMP280;52893;52.870;5.822;2023-05-09T00:00:29;101751.28;;;17.04
66113;BMP280;52893;52.870;5.822;2023-05-09T00:02:57;101736.16;;;16.98
66113;BMP280;52893;52.870;5.822;2023-05-09T00:05:25;101739.38;;;17.00
66113;BMP280;52893;52.870;5.822;2023-05-09T00:07:52;101732.25;;;16.99
66113;BMP280;52893;52.870;5.822;2023-05-09T00:10:21;101725.16;;;16.86
66113;BMP280;52893;52.870;5.822;2023-05-09T00:12:48;101737.34;;;16.85
66113;BMP280;52893;52.870;5.822;2023-05-09T00:15:15;101731.50;;;16.75
66113;BMP280;52893;52.870;5.822;2023-05-09T00:17:44;101734.59;;;16.73
66113;BMP280;52893;52.870;5.822;2023-05-09T00:20:11;101716.94;;;16.62
66113;BMP280;52893;52.870;5.822;2023-05-09T00:22:39;101732.78;;;16.65
66113;BMP280;52893;52.870;5.822;2023-05-09T00:25:08;101729.56;;;16.63
66113;BMP280;52893;52.870;5.822;2023-05-09T00:27:36;101722.91;;;16.64
66113;BMP280;52893;52.870;5.822;2023-05-09T00:30:05;101725.66;;;16.64
66113;BMP280;52893;52.870;5.822;2023-05-09T00:32:33;101715.09;;;16.66
66113;BMP280;52893;52.870;5.822;2023-05-09T00:35:00;101722.91;;;16.64
66113;BMP280;52893;52.870;5.822;2023-05-09T00:37:29;101720.84;;;16.61
66113;BMP280;52893;52.870;5.822;2023-05-09T00:39:57;101716.00;;;16.58
66113;BMP280;52893;52.870;5.822;2023-05-09T00:42:24;101693.28;;;16.49
66113;BMP280;52893;52.870;5.822;2023-05-09T00:44:53;101692.06;;;16.46
66113;BMP280;52893;52.870;5.822;2023-05-09T00:47:21;101697.31;;;16.51
66113;BMP280;52893;52.870;5.822;2023-05-09T00:49:49;101696.16;;;16.52
66113;BMP280;52893;52.870;5.822;2023-05-09T00:52:16;101680.22;;;16.46
66113;BMP280;52893;52.870;5.822;2023-05-09T00:54:48;101698.44;;;16.50
66113;BMP280;52893;52.870;5.822;2023-05-09T00:57:15;101696.84;;;16.49
66113;BMP280;52893;52.870;5.822;2023-05-09T00:59:43;101686.53;;;16.46
66113;BMP280;52893;52.870;5.822;2023-05-09T01:02:12;101688.47;;;16.46
66113;BMP280;52893;52.870;5.822;2023-05-09T01:04:39;101689.63;;;16.45
66113;BMP280;52893;52.870;5.822;2023-05-09T01:07:11;101684.81;;;16.42
66113;BMP280;52893;52.870;5.822;2023-05-09T01:09:44;101684.34;;;16.40
66113;BMP280;52893;52.870;5.822;2023-05-09T01:12:14;101682.63;;;16.35
66113;BMP280;52893;52.870;5.822;2023-05-09T01:14:48;101676.97;;;16.32
66113;BMP280;52893;52.870;5.822;2023-05-09T01:17:29;101671.72;;;16.27
66113;BMP280;52893;52.870;5.822;2023-05-09T01:20:02;101664.13;;;16.24
66113;BMP280;52893;52.870;5.822;2023-05-09T01:22:38;101667.59;;;16.21
66113;BMP280;52893;52.870;5.822;2023-05-09T01:25:19;101657.75;;;16.20
66113;BMP280;52893;52.870;5.822;2023-05-09T01:27:57;101635.91;;;16.15
66113;BMP280;52893;52.870;5.822;2023-05-09T01:30:33;101648.66;;;16.19
66113;BMP280;52893;52.870;5.822;2023-05-09T01:33:05;101646.56;;;16.16
66113;BMP280;52893;52.870;5.822;2023-05-09T01:35:34;101637.31;;;16.09
66113;BMP280;52893;52.870;5.822;2023-05-09T01:38:10;101645.31;;;16.14
66113;BMP280;52893;52.870;5.822;2023-05-09T01:40:40;101635.44;;;16.13
66113;BMP280;52893;52.870;5.822;2023-05-09T01:43:09;101636.56;;;16.12
66113;BMP280;52893;52.870;5.822;2023-05-09T01:45:39;101639.00;;;16.13
66113;BMP280;52893;52.870;5.822;2023-05-09T01:48:08;101637.53;;;16.16
66113;BMP280;52893;52.870;5.822;2023-05-09T01:50:38;101634.78;;;16.16
66113;BMP280;52893;52.870;5.822;2023-05-09T01:53:06;101621.66;;;16.13
66113;BMP280;52893;52.870;5.822;2023-05-09T01:55:35;101634.09;;;16.19
66113;BMP280;52893;52.870;5.822;2023-05-09T01:58:04;101624.19;;;16.18
66113;BMP280;52893;52.870;5.822;2023-05-09T02:00:33;101627.44;;;16.20
66113;BMP280;52893;52.870;5.822;2023-05-09T02:03:03;101627.03;;;16.21
66113;BMP280;52893;52.870;5.822;2023-05-09T02:05:31;101607.56;;;16.14
66113;BMP280;52893;52.870;5.822;2023-05-09T02:07:59;101621.44;;;16.18
66113;BMP280;52893;52.870;5.822;2023-05-09T02:10:27;101603.31;;;16.05
66113;BMP280;52893;52.870;5.822;2023-05-09T02:12:55;101629.03;;;16.21
66113;BMP280;52893;52.870;5.822;2023-05-09T02:15:23;101631.34;;;16.19
66113;BMP280;52893;52.870;5.822;2023-05-09T02:17:50;101624.91;;;16.15
66113;BMP280;52893;52.870;5.822;2023-05-09T02:20:19;101616.16;;;16.13
66113;BMP280;52893;52.870;5.822;2023-05-09T02:22:47;101613.41;;;16.13
66113;BMP280;52893;52.870;5.822;2023-05-09T02:25:14;101607.91;;;16.13
66113;BMP280;52893;52.870;5.822;2023-05-09T02:27:43;101613.88;;;16.15
66113;BMP280;52893;52.870;5.822;2023-05-09T02:30:15;101608.38;;;16.15
66113;BMP280;52893;52.870;5.822;2023-05-09T02:32:46;101607.56;;;16.14
66113;BMP280;52893;52.870;5.822;2023-05-09T02:35:16;101605.94;;;16.13
66113;BMP280;52893;52.870;5.822;2023-05-09T02:37:45;101606.28;;;16.12
66113;BMP280;52893;52.870;5.822;2023-05-09T02:40:13;101607.41;;;16.11
66113;BMP280;52893;52.870;5.822;2023-05-09T02:42:40;101574.63;;;15.93
66113;BMP280;52893;52.870;5.822;2023-05-09T02:45:08;101590.81;;;16.07
66113;BMP280;52893;52.870;5.822;2023-05-09T02:47:37;101598.63;;;16.05
66113;BMP280;52893;52.870;5.822;2023-05-09T02:50:05;101591.63;;;16.08
66113;BMP280;52893;52.870;5.822;2023-05-09T02:52:35;101580.94;;;16.06
66113;BMP280;52893;52.870;5.822;2023-05-09T02:55:05;101586.09;;;16.08
66113;BMP280;52893;52.870;5.822;2023-05-09T02:57:36;101587.72;;;16.09
66113;BMP280;52893;52.870;5.822;2023-05-09T03:00:04;101576.69;;;16.09
66113;BMP280;52893;52.870;5.822;2023-05-09T03:02:34;101576.69;;;16.09
66113;BMP280;52893;52.870;5.822;2023-05-09T03:05:03;101567.84;;;16.03
66113;BMP280;52893;52.870;5.822;2023-05-09T03:07:33;101572.66;;;16.06
66113;BMP280;52893;52.870;5.822;2023-05-09T03:10:01;101551.81;;;15.93
66113;BMP280;52893;52.870;5.822;2023-05-09T03:12:31;101557.66;;;16.03
66113;BMP280;52893;52.870;5.822;2023-05-09T03:14:59;101536.91;;;15.94
66113;BMP280;52893;52.870;5.822;2023-05-09T03:17:28;101556.50;;;16.05
66113;BMP280;52893;52.870;5.822;2023-05-09T03:19:56;101552.13;;;16.03
66113;BMP280;52893;52.870;5.822;2023-05-09T03:22:23;101551.00;;;16.05
66113;BMP280;52893;52.870;5.822;2023-05-09T03:24:56;101548.56;;;16.03
66113;BMP280;52893;52.870;5.822;2023-05-09T03:27:23;101545.25;;;15.97
66113;BMP280;52893;52.870;5.822;2023-05-09T03:29:53;101548.91;;;16.01
66113;BMP280;52893;52.870;5.822;2023-05-09T03:32:20;101550.06;;;16.00
66113;BMP280;52893;52.870;5.822;2023-05-09T03:34:47;101546.88;;;15.98
66113;BMP280;52893;52.870;5.822;2023-05-09T03:37:15;101528.25;;;15.95
66113;BMP280;52893;52.870;5.822;2023-05-09T03:39:43;101534.91;;;15.94
66113;BMP280;52893;52.870;5.822;2023-05-09T03:42:10;101532.16;;;15.94
66113;BMP280;52893;52.870;5.822;2023-05-09T03:44:39;101530.56;;;15.93
66113;BMP280;52893;52.870;5.822;2023-05-09T03:47:08;101528.16;;;15.92
66113;BMP280;52893;52.870;5.822;2023-05-09T03:49:39;101528.97;;;15.92
66113;BMP280;52893;52.870;5.822;2023-05-09T03:52:08;101530.56;;;15.93
66113;BMP280;52893;52.870;5.822;2023-05-09T03:54:36;101508.56;;;15.81
66113;BMP280;52893;52.870;5.822;2023-05-09T03:57:04;101520.69;;;15.92
66113;BMP280;52893;52.870;5.822;2023-05-09T03:59:32;101509.94;;;15.87
66113;BMP280;52893;52.870;5.822;2023-05-09T04:02:00;101495.47;;;15.78
66113;BMP280;52893;52.870;5.822;2023-05-09T04:04:29;101519.56;;;15.93
66113;BMP280;52893;52.870;5.822;2023-05-09T04:06:56;101512.56;;;15.96
66113;BMP280;52893;52.870;5.822;2023-05-09T04:09:24;101512.56;;;15.96
66113;BMP280;52893;52.870;5.822;2023-05-09T04:11:54;101491.09;;;15.89
66113;BMP280;52893;52.870;5.822;2023-05-09T04:14:21;101492.13;;;15.85
66113;BMP280;52893;52.870;5.822;2023-05-09T04:16:48;101495.03;;;15.88
66113;BMP280;52893;52.870;5.822;2023-05-09T04:19:15;101496.50;;;15.86
66113;BMP280;52893;52.870;5.822;2023-05-09T04:21:44;101493.09;;;15.89
66113;BMP280;52893;52.870;5.822;2023-05-09T04:24:13;101491.47;;;15.88
66113;BMP280;52893;52.870;5.822;2023-05-09T04:26:42;101494.56;;;15.86
66113;BMP280;52893;52.870;5.822;2023-05-09T04:29:14;101491.34;;;15.84
66113;BMP280;52893;52.870;5.822;2023-05-09T04:31:46;101492.88;;;15.82
66113;BMP280;52893;52.870;5.822;2023-05-09T04:34:14;101482.19;;;15.80
66113;BMP280;52893;52.870;5.822;2023-05-09T04:36:42;101464.53;;;15.69
66113;BMP280;52893;52.870;5.822;2023-05-09T04:39:10;101476.22;;;15.78
66113;BMP280;52893;52.870;5.822;2023-05-09T04:41:43;101474.25;;;15.79
66113;BMP280;52893;52.870;5.822;2023-05-09T04:44:13;101466.00;;;15.79
66113;BMP280;52893;52.870;5.822;2023-05-09T04:46:42;101466.81;;;15.79
66113;BMP280;52893;52.870;5.822;2023-05-09T04:49:09;101454.66;;;15.80
66113;BMP280;52893;52.870;5.822;2023-05-09T04:51:36;101461.78;;;15.81
66113;BMP280;52893;52.870;5.822;2023-05-09T04:54:04;101456.03;;;15.74
66113;BMP280;52893;52.870;5.822;2023-05-09T04:56:37;101474.16;;;15.87
66113;BMP280;52893;52.870;5.822;2023-05-09T04:59:04;101474.69;;;15.93
66113;BMP280;52893;52.870;5.822;2023-05-09T05:01:32;101472.53;;;15.98
66113;BMP280;52893;52.870;5.822;2023-05-09T05:04:00;101461.59;;;16.02
66113;BMP280;52893;52.870;5.822;2023-05-09T05:06:29;101469.69;;;16.11
66113;BMP280;52893;52.870;5.822;2023-05-09T05:08:56;101464.75;;;16.16
66113;BMP280;52893;52.870;5.822;2023-05-09T05:11:23;101451.44;;;16.18
66113;BMP280;52893;52.870;5.822;2023-05-09T05:13:52;101444.44;;;16.21
66113;BMP280;52893;52.870;5.822;2023-05-09T05:16:20;101452.19;;;16.31
66113;BMP280;52893;52.870;5.822;2023-05-09T05:18:48;101452.28;;;16.34
66113;BMP280;52893;52.870;5.822;2023-05-09T05:21:17;101437.25;;;16.32
66113;BMP280;52893;52.870;5.822;2023-05-09T05:23:44;101438.19;;;16.36
66113;BMP280;52893;52.870;5.822;2023-05-09T05:26:13;101434.97;;;16.34
66113;BMP280;52893;52.870;5.822;2023-05-09T05:28:41;101433.34;;;16.33
66113;BMP280;52893;52.870;5.822;2023-05-09T05:31:10;101431.72;;;16.32
66113;BMP280;52893;52.870;5.822;2023-05-09T05:33:37;101419.47;;;16.29
66113;BMP280;52893;52.870;5.822;2023-05-09T05:36:05;101419.13;;;16.31
66113;BMP280;52893;52.870;5.822;2023-05-09T05:38:33;101419.13;;;16.31
66113;BMP280;52893;52.870;5.822;2023-05-09T05:41:00;101419.84;;;16.28
66113;BMP280;52893;52.870;5.822;2023-05-09T05:43:29;101421.44;;;16.29
66113;BMP280;52893;52.870;5.822;2023-05-09T05:45:56;101410.88;;;16.31
66113;BMP280;52893;52.870;5.822;2023-05-09T05:48:26;101411.78;;;16.35
66113;BMP280;52893;52.870;5.822;2023-05-09T05:50:54;101411.50;;;16.40
66113;BMP280;52893;52.870;5.822;2023-05-09T05:53:25;101410.78;;;16.43
66113;BMP280;52893;52.870;5.822;2023-05-09T05:55:52;101416.50;;;16.50
66113;BMP280;52893;52.870;5.822;2023-05-09T05:58:20;101419.88;;;16.59
66113;BMP280;52893;52.870;5.822;2023-05-09T06:12:06;101390.75;;;17.59
66113;BMP280;52893;52.870;5.822;2023-05-09T06:14:34;101394.59;;;17.54
66113;BMP280;52893;52.870;5.822;2023-05-09T06:17:01;101396.78;;;17.45
66113;BMP280;52893;52.870;5.822;2023-05-09T06:19:28;101383.19;;;17.37
66113;BMP280;52893;52.870;5.822;2023-05-09T06:21:56;101387.66;;;17.26
66113;BMP280;52893;52.870;5.822;2023-05-09T06:24:23;101358.59;;;16.97
66113;BMP280;52893;52.870;5.822;2023-05-09T06:26:50;101380.94;;;17.08
66113;BMP280;52893;52.870;5.822;2023-05-09T06:29:18;101374.09;;;17.01
66113;BMP280;52893;52.870;5.822;2023-05-09T06:31:46;101372.06;;;16.98
66113;BMP280;52893;52.870;5.822;2023-05-09T06:34:13;101375.88;;;16.94
66113;BMP280;52893;52.870;5.822;2023-05-09T06:36:40;101380.97;;;16.92
66113;BMP280;52893;52.870;5.822;2023-05-09T06:39:07;101367.97;;;16.92
66113;BMP280;52893;52.870;5.822;2023-05-09T06:41:34;101362.47;;;16.92
66113;BMP280;52893;52.870;5.822;2023-05-09T06:44:01;101364.06;;;16.93
66113;BMP280;52893;52.870;5.822;2023-05-09T06:46:30;101366.44;;;16.95
66113;BMP280;52893;52.870;5.822;2023-05-09T06:48:57;101361.72;;;16.95
66113;BMP280;52893;52.870;5.822;2023-05-09T06:51:26;101356.19;;;16.95
66113;BMP280;52893;52.870;5.822;2023-05-09T06:53:53;101345.09;;;16.92
66113;BMP280;52893;52.870;5.822;2023-05-09T06:56:21;101341.25;;;16.96
66113;BMP280;52893;52.870;5.822;2023-05-09T06:58:48;101342.13;;;17.00
66113;BMP280;52893;52.870;5.822;2023-05-09T07:01:15;101338.22;;;17.01
66113;BMP280;52893;52.870;5.822;2023-05-09T07:03:44;101338.28;;;17.05
66113;BMP280;52893;52.870;5.822;2023-05-09T07:06:12;101329.75;;;17.10
66113;BMP280;52893;52.870;5.822;2023-05-09T07:08:39;101331.81;;;17.13
66113;BMP280;52893;52.870;5.822;2023-05-09T07:11:06;101328.13;;;17.09
66113;BMP280;52893;52.870;5.822;2023-05-09T07:13:33;101332.22;;;17.15
66113;BMP280;52893;52.870;5.822;2023-05-09T07:16:01;101321.19;;;17.15
66113;BMP280;52893;52.870;5.822;2023-05-09T07:18:28;101320.38;;;17.15
66113;BMP280;52893;52.870;5.822;2023-05-09T07:20:57;101290.00;;;16.95
66113;BMP280;52893;52.870;5.822;2023-05-09T07:23:24;101322.88;;;17.20
66113;BMP280;52893;52.870;5.822;2023-05-09T07:25:55;101322.19;;;17.23
66113;BMP280;52893;52.870;5.822;2023-05-09T07:28:22;101314.28;;;17.25
66113;BMP280;52893;52.870;5.822;2023-05-09T07:30:50;101304.88;;;17.26
66113;BMP280;52893;52.870;5.822;2023-05-09T07:33:17;101313.59;;;17.28
66113;BMP280;52893;52.870;5.822;2023-05-09T07:35:44;101297.38;;;17.26
66113;BMP280;52893;52.870;5.822;2023-05-09T07:38:13;101312.88;;;17.31
66113;BMP280;52893;52.870;5.822;2023-05-09T07:40:40;101308.16;;;17.31
66113;BMP280;52893;52.870;5.822;2023-05-09T07:43:07;101302.19;;;17.29
66113;BMP280;52893;52.870;5.822;2023-05-09T07:45:34;101291.41;;;17.24
66113;BMP280;52893;52.870;5.822;2023-05-09T07:48:02;101298.78;;;17.36
66113;BMP280;52893;52.870;5.822;2023-05-09T07:50:29;101303.16;;;17.37
66113;BMP280;52893;52.870;5.822;2023-05-09T07:52:56;101296.75;;;17.33
66113;BMP280;52893;52.870;5.822;2023-05-09T07:55:26;101282.06;;;17.29
66113;BMP280;52893;52.870;5.822;2023-05-09T07:57:53;101267.78;;;17.23
66113;BMP280;52893;52.870;5.822;2023-05-09T08:00:21;101284.69;;;17.41
66113;BMP280;52893;52.870;5.822;2023-05-09T08:02:49;101284.03;;;17.47
66113;BMP280;52893;52.870;5.822;2023-05-09T08:05:16;101280.84;;;17.45
66113;BMP280;52893;52.870;5.822;2023-05-09T08:07:43;101274.72;;;17.55
66113;BMP280;52893;52.870;5.822;2023-05-09T08:10:11;101276.03;;;17.62
66113;BMP280;52893;52.870;5.822;2023-05-09T08:12:40;101282.06;;;17.67
66113;BMP280;52893;52.870;5.822;2023-05-09T08:15:07;101250.53;;;17.49
66113;BMP280;52893;52.870;5.822;2023-05-09T08:17:34;101274.22;;;17.69
66113;BMP280;52893;52.870;5.822;2023-05-09T08:20:02;101269.13;;;17.71
66113;BMP280;52893;52.870;5.822;2023-05-09T08:22:31;101268.69;;;17.69
66113;BMP280;52893;52.870;5.822;2023-05-09T08:24:58;101266.88;;;17.77
66113;BMP280;52893;52.870;5.822;2023-05-09T08:27:25;101271.28;;;17.81
66113;BMP280;52893;52.870;5.822;2023-05-09T08:29:54;101260.59;;;17.80
66113;BMP280;52893;52.870;5.822;2023-05-09T08:32:21;101255.81;;;17.77
66113;BMP280;52893;52.870;5.822;2023-05-09T08:34:48;101244.41;;;17.78
66113;BMP280;52893;52.870;5.822;2023-05-09T08:37:15;101239.75;;;17.82
66113;BMP280;52893;52.870;5.822;2023-05-09T08:39:42;101237.88;;;17.90
66113;BMP280;52893;52.870;5.822;2023-05-09T08:42:10;101232.78;;;17.92
66113;BMP280;52893;52.870;5.822;2023-05-09T08:44:40;101234.13;;;18.01
66113;BMP280;52893;52.870;5.822;2023-05-09T08:47:09;101231.38;;;18.01
66113;BMP280;52893;52.870;5.822;2023-05-09T08:49:37;101230.66;;;18.04
66113;BMP280;52893;52.870;5.822;2023-05-09T08:52:06;101236.72;;;18.13
66113;BMP280;52893;52.870;5.822;2023-05-09T08:54:33;101234.81;;;18.18
66113;BMP280;52893;52.870;5.822;2023-05-09T08:57:01;101227.84;;;18.27
66113;BMP280;52893;52.870;5.822;2023-05-09T08:59:30;101205.59;;;18.17
66113;BMP280;52893;52.870;5.822;2023-05-09T09:02:00;101217.84;;;18.42
66113;BMP280;52893;52.870;5.822;2023-05-09T09:04:28;101218.66;;;18.46
66113;BMP280;52893;52.870;5.822;2023-05-09T09:06:56;101202.75;;;18.39
66113;BMP280;52893;52.870;5.822;2023-05-09T09:09:24;101215.16;;;18.49
66113;BMP280;52893;52.870;5.822;2023-05-09T09:11:52;101206.50;;;18.50
66113;BMP280;52893;52.870;5.822;2023-05-09T09:14:22;101210.88;;;18.51
66113;BMP280;52893;52.870;5.822;2023-05-09T09:16:51;101211.69;;;18.55
66113;BMP280;52893;52.870;5.822;2023-05-09T09:19:19;101210.16;;;18.58
66113;BMP280;52893;52.870;5.822;2023-05-09T09:21:50;101207.03;;;18.59
66113;BMP280;52893;52.870;5.822;2023-05-09T09:24:21;101177.16;;;18.42
66113;BMP280;52893;52.870;5.822;2023-05-09T09:26:49;101187.09;;;18.47
66113;BMP280;52893;52.870;5.822;2023-05-09T09:29:17;101194.00;;;18.60
66113;BMP280;52893;52.870;5.822;2023-05-09T09:31:46;101188.47;;;18.60
66113;BMP280;52893;52.870;5.822;2023-05-09T09:34:21;101188.03;;;18.58
66113;BMP280;52893;52.870;5.822;2023-05-09T09:36:49;101186.88;;;18.59
66113;BMP280;52893;52.870;5.822;2023-05-09T09:39:17;101202.28;;;18.60
66113;BMP280;52893;52.870;5.822;2023-05-09T09:41:44;101190.06;;;18.61
66113;BMP280;52893;52.870;5.822;2023-05-09T09:44:12;101184.97;;;18.66
66113;BMP280;52893;52.870;5.822;2023-05-09T09:46:41;101196.03;;;18.66
66113;BMP280;52893;52.870;5.822;2023-05-09T09:49:10;101187.31;;;18.61
66113;BMP280;52893;52.870;5.822;2023-05-09T09:51:37;101173.69;;;18.49
66113;BMP280;52893;52.870;5.822;2023-05-09T09:54:06;101183.28;;;18.58
66113;BMP280;52893;52.870;5.822;2023-05-09T09:56:38;101156.69;;;18.47
66113;BMP280;52893;52.870;5.822;2023-05-09T09:59:10;101181.78;;;18.64
66113;BMP280;52893;52.870;5.822;2023-05-09T10:01:53;101181.44;;;18.66
66113;BMP280;52893;52.870;5.822;2023-05-09T10:04:21;101174.69;;;18.63
66113;BMP280;52893;52.870;5.822;2023-05-09T10:06:52;101180.47;;;18.55
66113;BMP280;52893;52.870;5.822;2023-05-09T10:09:22;101176.72;;;18.40
66113;BMP280;52893;52.870;5.822;2023-05-09T10:11:50;101175.34;;;18.27
66113;BMP280;52893;52.870;5.822;2023-05-09T10:14:19;101183.38;;;18.09
66113;BMP280;52893;52.870;5.822;2023-05-09T10:16:47;101177.94;;;17.90
66113;BMP280;52893;52.870;5.822;2023-05-09T10:19:17;101183.63;;;17.78
66113;BMP280;52893;52.870;5.822;2023-05-09T10:21:49;101186.44;;;17.59
66113;BMP280;52893;52.870;5.822;2023-05-09T10:24:25;101186.19;;;17.45
66113;BMP280;52893;52.870;5.822;2023-05-09T10:26:59;101178.94;;;17.37
66113;BMP280;52893;52.870;5.822;2023-05-09T10:29:33;101160.53;;;17.22
66113;BMP280;52893;52.870;5.822;2023-05-09T10:32:07;101182.72;;;17.29
66113;BMP280;52893;52.870;5.822;2023-05-09T10:34:36;101162.97;;;17.27
66113;BMP280;52893;52.870;5.822;2023-05-09T10:37:07;101160.53;;;17.22
66113;BMP280;52893;52.870;5.822;2023-05-09T10:39:36;101152.66;;;17.24
66113;BMP280;52893;52.870;5.822;2023-05-09T10:42:03;101156.16;;;17.21
66113;BMP280;52893;52.870;5.822;2023-05-09T10:44:31;101158.94;;;17.21
66113;BMP280;52893;52.870;5.822;2023-05-09T10:46:59;101154.00;;;17.11
66113;BMP280;52893;52.870;5.822;2023-05-09T10:49:27;101149.91;;;17.04
66113;BMP280;52893;52.870;5.822;2023-05-09T10:51:55;101144.34;;;17.01
66113;BMP280;52893;52.870;5.822;2023-05-09T10:54:26;101149.34;;;16.95
66113;BMP280;52893;52.870;5.822;2023-05-09T10:56:55;101146.00;;;16.86
66113;BMP280;52893;52.870;5.822;2023-05-09T10:59:32;101148.56;;;16.76
66113;BMP280;52893;52.870;5.822;2023-05-09T11:01:59;101154.00;;;16.72
66113;BMP280;52893;52.870;5.822;2023-05-09T11:04:28;101147.22;;;16.70
66113;BMP280;52893;52.870;5.822;2023-05-09T11:06:57;101151.50;;;16.67
66113;BMP280;52893;52.870;5.822;2023-05-09T11:09:30;101136.53;;;16.68
66113;BMP280;52893;52.870;5.822;2023-05-09T11:12:09;101132.22;;;16.67
66113;BMP280;52893;52.870;5.822;2023-05-09T11:14:39;101125.97;;;16.70
66113;BMP280;52893;52.870;5.822;2023-05-09T11:17:09;101124.91;;;16.75
66113;BMP280;52893;52.870;5.822;2023-05-09T11:22:21;101122.38;;;16.85
66113;BMP280;52893;52.870;5.822;2023-05-09T11:24:49;101118.81;;;16.85
66113;BMP280;52893;52.870;5.822;2023-05-09T11:27:20;101107.25;;;16.79
66113;BMP280;52893;52.870;5.822;2023-05-09T11:29:50;101109.44;;;16.89
66113;BMP280;52893;52.870;5.822;2023-05-09T11:32:18;101108.63;;;16.89
66113;BMP280;52893;52.870;5.822;2023-05-09T11:34:46;101105.75;;;16.82
66113;BMP280;52893;52.870;5.822;2023-05-09T11:37:15;101106.97;;;16.84
66113;BMP280;52893;52.870;5.822;2023-05-09T11:39:57;101072.50;;;16.75
66113;BMP280;52893;52.870;5.822;2023-05-09T11:42:27;101059.53;;;16.75
66113;BMP280;52893;52.870;5.822;2023-05-09T11:44:55;101079.19;;;16.93
66113;BMP280;52893;52.870;5.822;2023-05-09T11:47:23;101077.25;;;16.93
66113;BMP280;52893;52.870;5.822;2023-05-09T11:49:50;101076.47;;;16.96
66113;BMP280;52893;52.870;5.822;2023-05-09T11:52:18;101074.88;;;16.95
66113;BMP280;52893;52.870;5.822;2023-05-09T11:54:46;101069.97;;;16.85
66113;BMP280;52893;52.870;5.822;2023-05-09T11:57:15;101077.72;;;16.80
66113;BMP280;52893;52.870;5.822;2023-05-09T11:59:44;101066.59;;;16.73
66113;BMP280;52893;52.870;5.822;2023-05-09T12:02:11;101060.84;;;16.62
66113;BMP280;52893;52.870;5.822;2023-05-09T12:04:39;101067.16;;;16.63
66113;BMP280;52893;52.870;5.822;2023-05-09T12:07:06;101073.31;;;16.56
66113;BMP280;52893;52.870;5.822;2023-05-09T12:09:34;101062.41;;;16.44
66113;BMP280;52893;52.870;5.822;2023-05-09T12:12:12;101056.31;;;16.35
66113;BMP280;52893;52.870;5.822;2023-05-09T12:14:40;101053.00;;;16.26
66113;BMP280;52893;52.870;5.822;2023-05-09T12:17:08;101056.78;;;16.21
66113;BMP280;52893;52.870;5.822;2023-05-09T12:19:36;101057.53;;;16.18
66113;BMP280;52893;52.870;5.822;2023-05-09T12:22:03;101051.94;;;16.15
66113;BMP280;52893;52.870;5.822;2023-05-09T12:24:34;101043.97;;;16.10
66113;BMP280;52893;52.870;5.822;2023-05-09T12:27:01;101047.59;;;16.14
66113;BMP280;52893;52.870;5.822;2023-05-09T12:29:30;101043.22;;;16.13
66113;BMP280;52893;52.870;5.822;2023-05-09T12:31:58;101039.31;;;16.14
66113;BMP280;52893;52.870;5.822;2023-05-09T12:34:27;101050.41;;;16.17
66113;BMP280;52893;52.870;5.822;2023-05-09T12:36:54;101045.28;;;16.16
66113;BMP280;52893;52.870;5.822;2023-05-09T12:39:24;101036.22;;;16.15
66113;BMP280;52893;52.870;5.822;2023-05-09T12:41:52;101027.50;;;16.13
66113;BMP280;52893;52.870;5.822;2023-05-09T12:44:20;101026.69;;;16.13
66113;BMP280;52893;52.870;5.822;2023-05-09T12:46:56;101029.75;;;16.08
66113;BMP280;52893;52.870;5.822;2023-05-09T12:49:23;101002.63;;;15.90
66113;BMP280;52893;52.870;5.822;2023-05-09T12:51:53;101031.97;;;16.02
66113;BMP280;52893;52.870;5.822;2023-05-09T12:54:21;101022.91;;;16.01
66113;BMP280;52893;52.870;5.822;2023-05-09T12:56:48;101023.13;;;15.93
66113;BMP280;52893;52.870;5.822;2023-05-09T12:59:20;101023.75;;;15.86
66113;BMP280;52893;52.870;5.822;2023-05-09T13:01:52;101013.47;;;15.83
66113;BMP280;52893;52.870;5.822;2023-05-09T13:04:20;101014.59;;;15.82
66113;BMP280;52893;52.870;5.822;2023-05-09T13:06:48;101018.06;;;15.79
66113;BMP280;52893;52.870;5.822;2023-05-09T13:09:17;101008.06;;;15.71
66113;BMP280;52893;52.870;5.822;2023-05-09T13:11:45;101013.03;;;15.66
66113;BMP280;52893;52.870;5.822;2023-05-09T13:14:12;101019.63;;;15.61
66113;BMP280;52893;52.870;5.822;2023-05-09T13:16:40;101008.44;;;15.54
66113;BMP280;52893;52.870;5.822;2023-05-09T13:19:07;101008.44;;;15.54
66113;BMP280;52893;52.870;5.822;2023-05-09T13:21:35;101004.91;;;15.54
66113;BMP280;52893;52.870;5.822;2023-05-09T13:24:03;100996.28;;;15.55
66113;BMP280;52893;52.870;5.822;2023-05-09T13:26:31;100993.50;;;15.55
66113;BMP280;52893;52.870;5.822;2023-05-09T13:28:59;100993.50;;;15.55
66113;BMP280;52893;52.870;5.822;2023-05-09T13:31:26;100984.47;;;15.55
66113;BMP280;52893;52.870;5.822;2023-05-09T13:33:53;100994.69;;;15.54
66113;BMP280;52893;52.870;5.822;2023-05-09T13:36:20;100988.31;;;15.50
66113;BMP280;52893;52.870;5.822;2023-05-09T13:38:47;100981.53;;;15.47
66113;BMP280;52893;52.870;5.822;2023-05-09T13:41:15;100980.72;;;15.47
66113;BMP280;52893;52.870;5.822;2023-05-09T13:43:47;100978.44;;;15.49
66113;BMP280;52893;52.870;5.822;2023-05-09T13:46:14;100976.38;;;15.46
66113;BMP280;52893;52.870;5.822;2023-05-09T13:48:41;100975.22;;;15.47
66113;BMP280;52893;52.870;5.822;2023-05-09T13:51:09;100972.59;;;15.50
66113;BMP280;52893;52.870;5.822;2023-05-09T13:53:36;100967.19;;;15.54
66113;BMP280;52893;52.870;5.822;2023-05-09T13:56:05;100970.34;;;15.56
66113;BMP280;52893;52.870;5.822;2023-05-09T13:58:34;100960.59;;;15.59
66113;BMP280;52893;52.870;5.822;2023-05-09T14:01:03;100960.94;;;15.57
66113;BMP280;52893;52.870;5.822;2023-05-09T14:03:30;100951.09;;;15.56
66113;BMP280;52893;52.870;5.822;2023-05-09T14:05:57;100949.88;;;15.54
66113;BMP280;52893;52.870;5.822;2023-05-09T14:08:24;100942.03;;;15.56
66113;BMP280;52893;52.870;5.822;2023-05-09T14:10:52;100942.13;;;15.59
66113;BMP280;52893;52.870;5.822;2023-05-09T14:13:19;100940.63;;;15.62
66113;BMP280;52893;52.870;5.822;2023-05-09T14:15:46;100945.75;;;15.63
66113;BMP280;52893;52.870;5.822;2023-05-09T14:18:15;100937.06;;;15.61